Time;durP1;ratioP1;P1;durP2;ratioP2;P2;SDS_P1;SDS_P2;PMS_P1;PMS_P2;Temp;Humidity;BMP_temperature;BMP_pressure;BME280_temperature;BME280_humidity;BME280_pressure;Samples;Min_cycle;Max_cycle;Signal;HPM_P1;HPM_P2
2021/06/11 00:01:46;;;;;;;11.48;9.38;;;14.00;90.20;;;;;;5092459;28;20105;-77
2021/06/11 00:04:12;;;;;;;12.63;10.15;;;14.10;90.10;;;;;;5092543;28;20024;-77
2021/06/11 00:06:37;;;;;;;12.15;9.23;;;14.00;89.50;;;;;;5093381;28;20016;-77
2021/06/11 00:09:04;;;;;;;13.02;9.50;;;14.00;89.90;;;;;;5095228;28;20052;-76
2021/06/11 00:11:29;;;;;;;10.85;9.23;;;13.90;90.30;;;;;;5096470;28;20020;-77
2021/06/11 00:13:55;;;;;;;11.50;9.77;;;13.90;90.30;;;;;;5096512;28;20370;-77
2021/06/11 00:16:21;;;;;;;11.07;9.80;;;14.00;90.10;;;;;;5096463;28;20043;-77
2021/06/11 00:18:47;;;;;;;15.27;10.80;;;13.90;90.00;;;;;;5096308;28;20101;-77
2021/06/11 00:21:13;;;;;;;11.93;10.27;;;13.90;90.10;;;;;;5096218;28;20481;-77
2021/06/11 00:23:38;;;;;;;13.82;9.60;;;13.90;90.00;;;;;;5095962;28;20484;-77
2021/06/11 00:26:04;;;;;;;10.68;9.30;;;13.90;90.30;;;;;;5096292;28;20028;-77
2021/06/11 00:28:29;;;;;;;14.50;9.85;;;13.90;90.40;;;;;;5096127;28;20349;-77
2021/06/11 00:30:55;;;;;;;15.00;10.35;;;13.90;90.90;;;;;;5096170;28;20028;-76
2021/06/11 00:33:21;;;;;;;13.50;9.85;;;13.90;90.70;;;;;;5096042;28;20027;-76
2021/06/11 00:35:46;;;;;;;14.20;10.65;;;13.90;90.40;;;;;;5095930;28;20619;-76
2021/06/11 00:38:12;;;;;;;11.02;9.57;;;13.80;90.30;;;;;;5095907;28;20024;-75
2021/06/11 00:40:39;;;;;;;14.35;10.85;;;13.80;90.30;;;;;;5094302;28;20051;-76
2021/06/11 00:43:11;;;;;;;12.88;10.30;;;13.80;90.20;;;;;;5095897;28;20107;-76
2021/06/11 00:45:37;;;;;;;12.45;9.50;;;13.80;90.20;;;;;;5097571;28;20048;-77
2021/06/11 00:48:03;;;;;;;11.13;9.02;;;13.80;90.20;;;;;;5100235;28;20024;-77
2021/06/11 00:50:29;;;;;;;13.60;10.18;;;13.80;90.30;;;;;;5099563;28;20060;-77
2021/06/11 00:52:56;;;;;;;12.18;9.25;;;13.80;90.10;;;;;;5096330;28;20446;-77
2021/06/11 00:55:22;;;;;;;11.48;9.82;;;13.80;89.70;;;;;;5094137;28;20027;-77
2021/06/11 00:57:48;;;;;;;11.25;10.10;;;13.70;89.40;;;;;;5094162;28;20024;-77
2021/06/11 01:00:14;;;;;;;12.30;9.80;;;13.70;89.70;;;;;;5095358;28;20489;-77
2021/06/11 01:02:40;;;;;;;10.68;9.55;;;13.60;89.90;;;;;;5095197;28;20024;-78
2021/06/11 01:05:07;;;;;;;13.68;10.13;;;13.60;90.20;;;;;;5095348;28;20032;-77
2021/06/11 01:07:34;;;;;;;11.57;9.73;;;13.60;90.40;;;;;;5095516;28;20019;-77
2021/06/11 01:10:00;;;;;;;15.80;10.55;;;13.60;90.40;;;;;;5095425;28;20024;-77
2021/06/11 01:12:27;;;;;;;11.32;10.13;;;13.60;90.20;;;;;;5095430;28;20078;-77
2021/06/11 01:14:54;;;;;;;11.80;10.55;;;13.50;90.40;;;;;;5094045;28;20434;-77
2021/06/11 01:17:21;;;;;;;14.93;11.20;;;13.50;90.40;;;;;;5095298;28;20107;-76
2021/06/11 01:19:49;;;;;;;14.73;10.32;;;13.40;90.60;;;;;;5095327;28;20020;-77
2021/06/11 01:22:21;;;;;;;12.70;9.90;;;13.40;90.70;;;;;;5095367;28;20386;-77
2021/06/11 01:25:01;;;;;;;13.93;10.68;;;13.50;90.70;;;;;;5095168;28;20024;-76
2021/06/11 01:27:28;;;;;;;12.68;10.50;;;13.50;90.20;;;;;;5095268;28;20476;-76
2021/06/11 01:30:03;;;;;;;12.30;10.60;;;13.60;90.10;;;;;;5095190;28;20020;-77
2021/06/11 01:32:30;;;;;;;15.82;12.00;;;13.50;90.00;;;;;;5094973;28;20032;-76
2021/06/11 01:34:56;;;;;;;11.85;10.20;;;13.50;90.20;;;;;;5095038;28;20024;-76
2021/06/11 01:37:25;;;;;;;12.38;10.38;;;13.50;90.60;;;;;;5095117;28;20529;-77
2021/06/11 01:39:54;;;;;;;12.45;10.68;;;13.40;90.40;;;;;;5095123;28;20178;-77
2021/06/11 01:42:20;;;;;;;14.40;11.02;;;13.30;90.40;;;;;;5096140;28;20349;-77
2021/06/11 01:44:48;;;;;;;13.45;11.13;;;13.30;90.70;;;;;;5095576;28;20495;-76
2021/06/11 01:47:14;;;;;;;11.18;9.93;;;13.30;90.90;;;;;;5095248;28;20051;-76
2021/06/11 01:49:43;;;;;;;13.32;10.77;;;13.40;91.20;;;;;;5094861;28;20031;-76
2021/06/11 01:52:11;;;;;;;14.80;10.65;;;13.40;91.00;;;;;;5096994;28;20024;-76
2021/06/11 01:54:38;;;;;;;12.90;11.05;;;13.30;90.90;;;;;;5097471;28;20049;-76
2021/06/11 01:57:04;;;;;;;12.48;10.80;;;13.30;91.50;;;;;;5097285;28;20097;-76
2021/06/11 01:59:31;;;;;;;15.13;11.70;;;13.40;91.60;;;;;;5097756;28;20059;-76
2021/06/11 02:01:57;;;;;;;11.13;9.88;;;13.50;91.70;;;;;;5097397;28;20039;-76
2021/06/11 02:04:23;;;;;;;12.95;10.52;;;13.40;91.20;;;;;;5096834;28;20028;-77
2021/06/11 02:06:50;;;;;;;12.95;9.95;;;13.40;90.80;;;;;;5095207;28;20123;-76
2021/06/11 02:09:16;;;;;;;13.13;10.68;;;13.30;90.80;;;;;;5094110;28;20048;-77
2021/06/11 02:11:42;;;;;;;11.73;10.48;;;13.40;90.70;;;;;;5093975;28;20028;-77
2021/06/11 02:14:13;;;;;;;11.95;10.70;;;13.30;91.00;;;;;;5093896;28;20494;-77
2021/06/11 02:16:39;;;;;;;13.05;10.13;;;13.30;91.10;;;;;;5093899;28;20051;-77
2021/06/11 02:19:06;;;;;;;14.60;10.75;;;13.30;91.10;;;;;;5093820;28;20391;-77
2021/06/11 02:21:34;;;;;;;13.15;10.57;;;13.40;91.00;;;;;;5093608;28;20040;-77
2021/06/11 02:23:59;;;;;;;14.00;10.20;;;13.40;90.80;;;;;;5093691;28;20299;-77
2021/06/11 02:26:27;;;;;;;13.32;10.63;;;13.30;90.90;;;;;;5093667;28;20035;-77
2021/06/11 02:28:53;;;;;;;18.67;11.27;;;13.30;91.10;;;;;;5093392;28;20043;-77
2021/06/11 02:31:20;;;;;;;19.55;11.02;;;13.30;91.50;;;;;;5093401;28;20028;-76
2021/06/11 02:33:46;;;;;;;12.00;10.65;;;13.30;91.60;;;;;;5093552;28;20427;-77
2021/06/11 02:36:12;;;;;;;18.10;11.48;;;13.30;91.20;;;;;;5093444;28;20027;-76
2021/06/11 02:38:38;;;;;;;14.35;11.60;;;13.30;91.20;;;;;;5093331;28;20028;-76
2021/06/11 02:41:06;;;;;;;14.23;10.88;;;13.30;91.10;;;;;;5093338;28;20028;-76
2021/06/11 02:43:37;;;;;;;15.25;10.30;;;13.20;91.10;;;;;;5093299;28;20357;-77
2021/06/11 02:46:26;;;;;;;14.52;10.60;;;13.30;91.10;;;;;;5093211;28;20082;-77
2021/06/11 02:49:06;;;;;;;14.80;10.15;;;13.20;90.90;;;;;;5093325;28;20028;-78
2021/06/11 02:51:37;;;;;;;11.27;9.70;;;13.30;90.90;;;;;;5093165;28;20484;-77
2021/06/11 02:54:04;;;;;;;13.48;11.40;;;13.30;90.80;;;;;;5093134;28;20031;-77
2021/06/11 02:56:42;;;;;;;14.88;11.15;;;13.40;90.70;;;;;;5093013;28;20028;-78
2021/06/11 02:59:17;;;;;;;12.55;10.48;;;13.30;90.70;;;;;;5091778;28;20093;-77
2021/06/11 03:01:48;;;;;;;13.18;10.65;;;13.30;90.90;;;;;;5092930;28;20028;-76
2021/06/11 03:04:15;;;;;;;13.57;10.85;;;13.20;90.80;;;;;;5093188;28;20072;-76
2021/06/11 03:06:44;;;;;;;11.93;10.27;;;13.20;91.00;;;;;;5093030;28;20027;-77
2021/06/11 03:09:13;;;;;;;11.88;10.23;;;13.10;91.30;;;;;;5092881;28;20020;-76
2021/06/11 03:11:41;;;;;;;15.73;10.82;;;13.00;91.70;;;;;;5092651;28;20036;-77
2021/06/11 03:14:08;;;;;;;14.65;11.05;;;13.10;92.00;;;;;;5091805;28;20396;-77
2021/06/11 03:16:34;;;;;;;15.80;11.48;;;13.10;91.80;;;;;;5092851;28;20486;-77
2021/06/11 03:19:11;;;;;;;12.48;10.18;;;13.00;91.80;;;;;;5092860;28;20032;-77
2021/06/11 03:21:47;;;;;;;12.05;9.73;;;13.00;92.00;;;;;;5092618;28;20035;-77
2021/06/11 03:24:22;;;;;;;12.27;10.20;;;13.10;92.00;;;;;;5092693;28;20115;-77
2021/06/11 03:26:51;;;;;;;13.27;10.63;;;13.10;92.00;;;;;;5093908;28;20469;-77
2021/06/11 03:29:21;;;;;;;14.23;10.52;;;13.10;91.80;;;;;;5092553;28;20490;-76
2021/06/11 03:31:52;;;;;;;13.13;10.85;;;13.00;91.80;;;;;;5092624;28;20028;-76
2021/06/11 03:34:24;;;;;;;13.20;10.88;;;13.00;92.10;;;;;;5092554;28;20507;-77
2021/06/11 03:36:53;;;;;;;11.48;9.95;;;13.00;92.20;;;;;;5092662;28;20072;-77
2021/06/11 03:39:25;;;;;;;12.43;10.95;;;13.10;92.20;;;;;;5092383;28;20119;-77
2021/06/11 03:41:52;;;;;;;12.05;10.75;;;13.10;92.00;;;;;;5093711;28;20064;-77
2021/06/11 03:44:19;;;;;;;14.77;11.07;;;13.10;91.70;;;;;;5096562;28;20369;-77
2021/06/11 03:46:47;;;;;;;14.32;11.25;;;13.00;91.70;;;;;;5096454;28;20052;-75
2021/06/11 03:49:14;;;;;;;12.73;10.52;;;13.10;91.80;;;;;;5096447;28;20476;-75
2021/06/11 03:51:42;;;;;;;14.38;10.88;;;13.10;91.70;;;;;;5096299;28;20455;-76
2021/06/11 03:54:10;;;;;;;13.98;10.63;;;13.10;91.50;;;;;;5096424;28;20023;-76
2021/06/11 03:56:37;;;;;;;19.35;10.27;;;13.10;91.40;;;;;;5096318;28;20065;-76
2021/06/11 03:59:04;;;;;;;15.48;10.52;;;13.20;91.50;;;;;;5096370;28;20024;-76
2021/06/11 04:01:34;;;;;;;15.05;10.95;;;13.20;91.70;;;;;;5096276;28;20499;-77
2021/06/11 04:04:01;;;;;;;13.85;11.00;;;13.20;91.60;;;;;;5096397;28;20133;-78
2021/06/11 04:06:32;;;;;;;13.73;9.68;;;13.20;91.60;;;;;;5096231;28;20032;-77
2021/06/11 04:09:04;;;;;;;12.27;10.23;;;13.20;91.70;;;;;;5096423;28;20027;-77
2021/06/11 04:11:33;;;;;;;11.60;9.57;;;13.30;91.80;;;;;;5096262;28;20031;-77
2021/06/11 04:14:00;;;;;;;13.40;10.32;;;13.30;91.40;;;;;;5097043;28;20025;-77
2021/06/11 04:16:32;;;;;;;12.52;9.80;;;13.40;91.20;;;;;;5097546;28;20601;-77
2021/06/11 04:19:01;;;;;;;18.80;10.52;;;13.40;91.00;;;;;;5099371;28;20022;-77
2021/06/11 04:21:30;;;;;;;11.63;9.00;;;13.50;91.20;;;;;;5097366;28;20604;-77
2021/06/11 04:24:01;;;;;;;13.50;9.13;;;13.50;91.10;;;;;;5096111;28;20052;-77
2021/06/11 04:26:29;;;;;;;12.02;9.02;;;13.60;90.80;;;;;;5095983;28;20028;-78
2021/06/11 04:28:56;;;;;;;11.90;9.55;;;13.60;90.30;;;;;;5096129;28;20376;-77
2021/06/11 04:31:22;;;;;;;13.88;9.63;;;13.60;90.40;;;;;;5095834;28;20020;-77
2021/06/11 04:33:48;;;;;;;11.27;9.52;;;13.60;90.50;;;;;;5095619;28;20129;-77
2021/06/11 04:36:14;;;;;;;10.70;9.18;;;13.70;90.40;;;;;;5095893;28;20016;-77
2021/06/11 04:38:54;;;;;;;11.68;9.35;;;13.70;90.20;;;;;;5095308;28;20035;-77
2021/06/11 04:41:19;;;;;;;12.50;8.82;;;13.80;89.80;;;;;;5095594;28;20036;-76
2021/06/11 04:43:45;;;;;;;11.93;9.80;;;13.80;89.60;;;;;;5095949;28;20116;-76
2021/06/11 04:46:10;;;;;;;12.63;9.05;;;13.80;89.60;;;;;;5095953;28;20040;-76
2021/06/11 04:48:36;;;;;;;12.20;8.82;;;13.90;89.60;;;;;;5094712;28;20024;-76
2021/06/11 04:51:02;;;;;;;12.65;9.48;;;14.00;89.40;;;;;;5095977;28;20060;-77
2021/06/11 04:53:27;;;;;;;11.05;8.88;;;14.00;89.20;;;;;;5095352;28;20372;-76
2021/06/11 04:55:55;;;;;;;11.65;9.27;;;14.00;89.00;;;;;;5095924;28;20062;-76
2021/06/11 04:58:21;;;;;;;16.67;10.48;;;14.10;88.90;;;;;;5095632;28;20020;-76
2021/06/11 05:00:48;;;;;;;14.00;9.27;;;14.10;88.90;;;;;;5095218;28;20085;-76
2021/06/11 05:03:13;;;;;;;11.50;9.07;;;14.20;88.90;;;;;;5094408;28;20035;-76
2021/06/11 05:05:39;;;;;;;14.50;9.35;;;14.20;88.70;;;;;;5095619;28;20020;-76
2021/06/11 05:08:05;;;;;;;13.00;8.70;;;14.30;88.60;;;;;;5095574;28;20082;-75
2021/06/11 05:10:30;;;;;;;10.90;9.45;;;14.30;88.50;;;;;;5095399;28;20024;-75
2021/06/11 05:12:56;;;;;;;10.45;8.55;;;14.40;88.50;;;;;;5095428;28;20024;-76
2021/06/11 05:15:21;;;;;;;10.05;8.98;;;14.40;88.40;;;;;;5095211;28;20471;-76
2021/06/11 05:17:47;;;;;;;12.10;9.77;;;14.50;88.60;;;;;;5095377;28;20028;-76
2021/06/11 05:20:13;;;;;;;12.93;8.63;;;14.60;88.00;;;;;;5093788;28;20131;-76
2021/06/11 05:22:39;;;;;;;12.10;8.70;;;14.70;87.90;;;;;;5095017;28;20031;-76
2021/06/11 05:25:06;;;;;;;9.77;8.52;;;14.70;87.80;;;;;;5094967;28;20020;-77
2021/06/11 05:27:31;;;;;;;11.90;8.90;;;14.80;87.50;;;;;;5094917;28;20077;-77
2021/06/11 05:29:57;;;;;;;10.63;8.80;;;14.90;87.60;;;;;;5094690;28;20024;-76
2021/06/11 05:32:22;;;;;;;12.48;9.20;;;15.00;87.50;;;;;;5094950;28;20055;-76
2021/06/11 05:34:48;;;;;;;11.20;8.52;;;15.00;87.40;;;;;;5093539;28;20039;-77
2021/06/11 05:37:13;;;;;;;12.60;8.65;;;15.10;87.20;;;;;;5093462;28;20027;-76
2021/06/11 05:39:39;;;;;;;10.57;8.98;;;15.20;87.20;;;;;;5094584;28;20035;-77
2021/06/11 05:42:05;;;;;;;10.65;8.43;;;15.30;87.00;;;;;;5094691;28;20028;-77
2021/06/11 05:44:30;;;;;;;10.20;8.82;;;15.40;86.90;;;;;;5092445;28;20385;-77
2021/06/11 05:46:56;;;;;;;15.35;9.65;;;15.50;86.90;;;;;;5084334;28;20044;-76
2021/06/11 05:49:21;;;;;;;11.25;9.13;;;15.60;86.80;;;;;;5083923;28;20028;-75
2021/06/11 05:51:47;;;;;;;11.82;8.90;;;15.70;86.70;;;;;;5084415;28;20028;-78
2021/06/11 05:54:13;;;;;;;12.20;8.48;;;15.90;86.00;;;;;;5081678;28;20469;-78
2021/06/11 05:56:38;;;;;;;13.43;8.18;;;15.90;85.70;;;;;;5085688;28;20024;-77
2021/06/11 05:59:04;;;;;;;8.57;7.68;;;16.10;85.80;;;;;;5086519;28;20020;-76
2021/06/11 06:01:30;;;;;;;11.38;8.02;;;16.10;85.60;;;;;;5093965;28;20028;-76
2021/06/11 06:03:58;;;;;;;11.90;8.05;;;16.20;85.40;;;;;;5093697;28;20077;-77
2021/06/11 06:06:23;;;;;;;14.55;8.68;;;16.40;85.20;;;;;;5094082;28;20028;-76
2021/06/11 06:08:49;;;;;;;12.60;7.82;;;16.50;84.80;;;;;;5094531;28;20027;-76
2021/06/11 06:11:15;;;;;;;10.43;7.95;;;16.60;84.10;;;;;;5094595;28;20031;-76
2021/06/11 06:13:41;;;;;;;9.02;7.90;;;16.70;83.90;;;;;;5095084;28;20103;-75
2021/06/11 06:16:07;;;;;;;10.02;7.95;;;16.80;83.80;;;;;;5094832;28;20097;-76
2021/06/11 06:18:32;;;;;;;8.55;7.32;;;16.90;83.80;;;;;;5095513;28;20468;-76
2021/06/11 06:20:59;;;;;;;13.85;8.38;;;17.00;84.20;;;;;;5095907;28;20028;-76
2021/06/11 06:23:25;;;;;;;10.20;7.78;;;17.00;84.10;;;;;;5100917;28;20024;-77
2021/06/11 06:25:50;;;;;;;10.30;7.13;;;17.20;84.00;;;;;;5095503;28;20035;-77
2021/06/11 06:28:16;;;;;;;8.50;7.70;;;17.40;83.90;;;;;;5095404;28;20028;-77
2021/06/11 06:30:43;;;;;;;12.38;8.85;;;17.60;83.70;;;;;;5093832;28;20145;-77
2021/06/11 06:33:08;;;;;;;9.55;8.57;;;17.70;83.40;;;;;;5093561;28;20051;-77
2021/06/11 06:35:34;;;;;;;8.75;7.85;;;17.80;83.10;;;;;;5093403;28;20024;-77
2021/06/11 06:37:59;;;;;;;9.20;8.30;;;18.00;82.40;;;;;;5097988;28;20024;-77
2021/06/11 06:40:25;;;;;;;9.32;8.13;;;18.10;82.20;;;;;;5094444;28;20039;-77
2021/06/11 06:42:51;;;;;;;11.07;9.98;;;18.30;82.00;;;;;;5093826;28;20115;-76
2021/06/11 06:45:19;;;;;;;9.50;8.15;;;18.50;81.40;;;;;;5093253;28;20104;-77
2021/06/11 06:47:46;;;;;;;9.05;8.07;;;18.60;80.90;;;;;;5093606;28;20063;-76
2021/06/11 06:50:17;;;;;;;11.30;7.70;;;18.70;80.40;;;;;;5093557;28;20012;-76
2021/06/11 06:52:43;;;;;;;9.70;7.75;;;18.80;79.60;;;;;;5093036;28;20024;-77
2021/06/11 06:55:10;;;;;;;9.57;8.60;;;18.90;79.30;;;;;;5093267;28;20048;-77
2021/06/11 06:57:36;;;;;;;10.85;8.27;;;19.00;78.90;;;;;;5093185;28;20388;-76
2021/06/11 07:00:06;;;;;;;10.25;8.68;;;19.10;78.30;;;;;;5093313;28;20028;-76
2021/06/11 07:02:31;;;;;;;12.65;8.77;;;19.20;77.70;;;;;;5093200;28;20026;-76
2021/06/11 07:04:57;;;;;;;10.07;7.28;;;19.30;77.90;;;;;;5093430;28;20439;-76
2021/06/11 07:07:23;;;;;;;12.40;9.30;;;19.30;77.60;;;;;;5093030;28;20465;-76
2021/06/11 07:09:48;;;;;;;10.15;9.02;;;19.30;76.50;;;;;;5093012;28;20020;-76
2021/06/11 07:12:14;;;;;;;9.82;7.43;;;19.30;76.40;;;;;;5092785;28;20031;-76
2021/06/11 07:14:40;;;;;;;8.02;7.22;;;19.50;76.50;;;;;;5093125;28;20024;-76
2021/06/11 07:17:07;;;;;;;10.40;9.40;;;19.60;77.10;;;;;;5092957;28;20031;-77
2021/06/11 07:19:33;;;;;;;11.95;9.85;;;19.70;76.20;;;;;;5093102;28;20065;-77
2021/06/11 07:21:58;;;;;;;10.88;8.73;;;19.80;74.70;;;;;;5092842;28;20423;-77
2021/06/11 07:24:24;;;;;;;17.23;8.02;;;19.90;74.20;;;;;;5093128;28;20020;-78
2021/06/11 07:26:49;;;;;;;18.80;10.27;;;20.10;75.10;;;;;;5092986;28;20031;-74
2021/06/11 07:29:15;;;;;;;20.90;8.05;;;20.20;75.30;;;;;;5092873;28;20035;-80
2021/06/11 07:31:41;;;;;;;14.85;7.63;;;20.40;75.00;;;;;;5092857;28;20032;-79
2021/06/11 07:34:07;;;;;;;13.60;8.65;;;20.60;73.20;;;;;;5091536;28;20080;-79
2021/06/11 07:36:32;;;;;;;12.05;9.40;;;20.90;72.90;;;;;;5092807;28;20027;-79
2021/06/11 07:38:58;;;;;;;10.10;8.10;;;21.00;70.60;;;;;;5092741;28;20027;-79
2021/06/11 07:41:24;;;;;;;14.95;10.75;;;21.30;70.10;;;;;;5092627;28;20040;-79
2021/06/11 07:43:53;;;;;;;9.93;8.85;;;21.30;69.60;;;;;;5092709;28;20069;-79
2021/06/11 07:46:20;;;;;;;12.43;7.35;;;21.30;69.60;;;;;;5092550;28;20051;-79
2021/06/11 07:48:46;;;;;;;16.80;10.95;;;21.50;69.40;;;;;;5092790;28;20076;-79
2021/06/11 07:51:12;;;;;;;14.32;10.13;;;21.50;68.10;;;;;;5092655;28;20024;-78
2021/06/11 07:53:37;;;;;;;11.20;8.30;;;21.40;66.40;;;;;;5092595;28;20035;-79
2021/06/11 07:56:04;;;;;;;12.05;8.20;;;21.30;66.70;;;;;;5092646;28;20020;-79
2021/06/11 07:58:30;;;;;;;8.35;7.55;;;21.40;64.80;;;;;;5092552;28;20440;-79
2021/06/11 08:00:55;;;;;;;9.02;6.63;;;21.40;64.10;;;;;;5092412;28;20067;-79
2021/06/11 08:03:21;;;;;;;8.93;7.80;;;21.50;64.80;;;;;;5092400;28;20020;-79
2021/06/11 08:05:46;;;;;;;9.75;6.97;;;21.60;62.50;;;;;;5092475;28;20028;-79
2021/06/11 08:08:12;;;;;;;8.40;7.07;;;21.60;64.40;;;;;;5092442;28;20465;-79
2021/06/11 08:10:38;;;;;;;8.52;7.57;;;21.70;65.50;;;;;;5092218;28;20016;-79
2021/06/11 08:13:04;;;;;;;7.60;6.80;;;21.70;63.80;;;;;;5092535;28;20055;-79
2021/06/11 08:15:30;;;;;;;6.85;6.13;;;21.70;64.00;;;;;;5092593;28;20473;-79
2021/06/11 08:17:56;;;;;;;6.03;5.43;;;21.80;65.10;;;;;;5092301;28;20039;-79
2021/06/11 08:20:21;;;;;;;9.50;7.32;;;22.00;65.10;;;;;;5092373;28;20024;-79
2021/06/11 08:22:47;;;;;;;8.57;7.10;;;22.20;63.80;;;;;;5092327;28;20438;-79
2021/06/11 08:25:13;;;;;;;7.90;6.22;;;22.20;64.40;;;;;;5092316;28;20025;-79
2021/06/11 08:27:39;;;;;;;8.02;7.32;;;22.20;64.20;;;;;;5093068;28;20377;-79
2021/06/11 08:30:06;;;;;;;8.60;7.72;;;22.20;61.30;;;;;;5096092;28;20024;-80
2021/06/11 08:32:31;;;;;;;8.05;6.63;;;22.30;62.40;;;;;;5095740;28;20536;-80
2021/06/11 08:34:57;;;;;;;8.38;7.55;;;22.40;61.50;;;;;;5095926;28;20109;-80
2021/06/11 08:37:23;;;;;;;7.63;6.70;;;22.40;60.50;;;;;;5095817;28;20134;-80
2021/06/11 08:39:53;;;;;;;9.70;7.90;;;22.60;61.40;;;;;;5095826;28;20081;-79
2021/06/11 08:42:30;;;;;;;8.50;7.18;;;22.70;61.00;;;;;;5096111;28;20036;-78
2021/06/11 08:45:00;;;;;;;9.20;8.30;;;22.80;61.40;;;;;;5095957;28;20104;-78
2021/06/11 08:47:27;;;;;;;7.47;6.80;;;22.90;59.20;;;;;;5095485;28;20052;-79
2021/06/11 08:49:54;;;;;;;9.73;7.40;;;23.00;59.30;;;;;;5099466;28;20020;-79
2021/06/11 08:52:20;;;;;;;8.90;8.10;;;23.10;59.30;;;;;;5096817;28;20564;-79
2021/06/11 08:54:47;;;;;;;7.53;6.82;;;23.30;58.50;;;;;;5095697;28;20055;-79
2021/06/11 08:57:13;;;;;;;9.45;8.55;;;23.40;57.30;;;;;;5095884;28;20114;-79
2021/06/11 08:59:39;;;;;;;8.65;7.65;;;23.40;58.00;;;;;;5095604;28;20051;-79
2021/06/11 09:02:05;;;;;;;9.20;7.45;;;23.40;58.40;;;;;;5095592;28;20071;-79
2021/06/11 09:04:51;;;;;;;7.20;6.50;;;23.60;58.00;;;;;;5095582;28;20023;-79
2021/06/11 09:07:27;;;;;;;9.32;8.38;;;23.80;57.00;;;;;;5094331;28;20503;-79
2021/06/11 09:10:06;;;;;;;9.85;8.85;;;23.80;57.20;;;;;;5094248;28;20227;-79
2021/06/11 09:12:40;;;;;;;8.90;7.13;;;23.80;55.00;;;;;;5095460;28;20380;-79
2021/06/11 09:15:17;;;;;;;8.80;7.22;;;23.70;54.50;;;;;;5095448;28;20020;-80
2021/06/11 09:17:52;;;;;;;12.65;8.95;;;24.00;57.10;;;;;;5095339;28;20046;-79
2021/06/11 09:20:20;;;;;;;7.93;6.85;;;24.00;56.20;;;;;;5095132;28;20102;-79
2021/06/11 09:22:51;;;;;;;11.63;9.63;;;24.10;56.10;;;;;;5095189;28;20034;-79
2021/06/11 09:25:40;;;;;;;11.88;9.68;;;24.20;54.80;;;;;;5095248;28;20107;-80
2021/06/11 09:28:09;;;;;;;11.18;10.00;;;24.00;53.90;;;;;;5095067;28;20036;-79
2021/06/11 09:30:37;;;;;;;11.45;9.75;;;23.90;53.40;;;;;;5094919;28;20092;-78
2021/06/11 09:33:11;;;;;;;11.68;9.65;;;23.80;53.60;;;;;;5094911;28;20027;-79
2021/06/11 09:35:49;;;;;;;11.77;9.93;;;23.90;54.90;;;;;;5095065;28;20057;-79
2021/06/11 09:38:25;;;;;;;10.45;9.45;;;23.90;54.00;;;;;;5094743;28;20526;-79
2021/06/11 09:41:08;;;;;;;12.90;9.65;;;23.90;52.30;;;;;;5094129;28;20040;-79
2021/06/11 09:43:52;;;;;;;11.77;10.68;;;24.00;53.90;;;;;;5094852;28;20023;-78
2021/06/11 09:46:17;;;;;;;10.88;9.77;;;24.00;54.10;;;;;;5094279;28;20518;-78
2021/06/11 09:48:48;;;;;;;11.05;9.85;;;24.00;53.80;;;;;;5094786;28;20095;-79
2021/06/11 09:51:15;;;;;;;11.10;10.00;;;24.10;51.90;;;;;;5094374;28;20089;-81
2021/06/11 09:53:41;;;;;;;11.63;9.18;;;24.20;51.80;;;;;;5094662;28;20020;-81
2021/06/11 09:56:17;;;;;;;16.02;10.48;;;24.30;49.80;;;;;;5094345;28;20024;-80
2021/06/11 09:58:42;;;;;;;10.52;9.25;;;24.30;48.80;;;;;;5093995;28;20422;-81
2021/06/11 10:01:10;;;;;;;11.15;9.38;;;24.40;48.50;;;;;;5093553;28;20119;-80
2021/06/11 10:03:37;;;;;;;11.55;9.40;;;24.50;47.90;;;;;;5093523;28;20022;-81
2021/06/11 10:06:06;;;;;;;9.50;8.57;;;24.50;48.60;;;;;;5093689;28;20024;-80
2021/06/11 10:08:32;;;;;;;11.07;9.98;;;24.70;46.80;;;;;;5093336;28;20024;-81
2021/06/11 10:11:01;;;;;;;11.00;8.50;;;24.70;44.10;;;;;;5093776;28;20028;-80
2021/06/11 10:13:27;;;;;;;8.90;7.95;;;24.80;43.50;;;;;;5093726;28;20068;-81
2021/06/11 10:16:01;;;;;;;8.05;7.28;;;25.00;44.40;;;;;;5093577;28;20082;-79
2021/06/11 10:18:27;;;;;;;12.40;7.28;;;25.10;40.60;;;;;;5093790;28;20510;-79
2021/06/11 10:20:53;;;;;;;7.38;6.72;;;25.30;41.10;;;;;;5093643;28;20036;-80
2021/06/11 10:23:23;;;;;;;6.95;6.22;;;25.50;43.00;;;;;;5093521;28;20440;-80
2021/06/11 10:25:56;;;;;;;10.05;6.50;;;25.60;42.70;;;;;;5093564;28;20019;-80
2021/06/11 10:28:28;;;;;;;8.27;6.80;;;25.80;40.30;;;;;;5093574;28;20023;-81
2021/06/11 10:31:02;;;;;;;8.82;7.95;;;25.70;38.60;;;;;;5093745;28;20020;-81
2021/06/11 10:33:46;;;;;;;9.27;7.00;;;25.70;40.60;;;;;;5093559;28;20032;-81
2021/06/11 10:36:44;;;;;;;11.32;5.80;;;25.70;40.10;;;;;;5093237;28;20040;-80
2021/06/11 10:39:09;;;;;;;8.70;5.72;;;25.70;38.80;;;;;;5084824;28;20036;-82
2021/06/11 10:41:58;;;;;;;8.43;6.53;;;25.80;38.40;;;;;;5093236;28;20032;-81
2021/06/11 10:44:45;;;;;;;5.32;4.50;;;25.70;40.20;;;;;;5093558;28;20028;-81
2021/06/11 10:47:16;;;;;;;6.38;4.95;;;25.80;38.70;;;;;;5093272;28;20050;-79
2021/06/11 10:49:57;;;;;;;7.35;5.30;;;26.00;38.50;;;;;;5093252;28;20547;-80
2021/06/11 10:52:31;;;;;;;5.75;4.10;;;26.10;38.40;;;;;;5092877;28;20028;-81
2021/06/11 10:55:17;;;;;;;3.55;3.25;;;26.00;35.90;;;;;;5093229;28;20051;-80
2021/06/11 10:58:03;;;;;;;4.30;3.53;;;25.70;34.10;;;;;;5092862;28;20158;-82
2021/06/11 11:00:33;;;;;;;5.05;4.55;;;25.70;34.70;;;;;;5092714;28;20032;-80
2021/06/11 11:03:01;;;;;;;6.18;4.97;;;25.90;37.00;;;;;;5092958;28;20028;-79
2021/06/11 11:05:30;;;;;;;6.53;4.63;;;26.10;38.20;;;;;;5092501;28;20031;-81
2021/06/11 11:07:57;;;;;;;7.13;5.55;;;26.20;37.50;;;;;;5092806;28;20034;-80
2021/06/11 11:10:39;;;;;;;6.20;5.47;;;26.20;37.70;;;;;;5092802;28;20481;-80
2021/06/11 11:13:14;;;;;;;6.15;4.90;;;26.20;37.00;;;;;;5092924;28;20324;-81
2021/06/11 11:15:42;;;;;;;4.85;3.60;;;26.20;34.20;;;;;;5092609;28;20429;-80
2021/06/11 11:18:19;;;;;;;4.85;3.40;;;26.30;34.50;;;;;;5092966;28;20016;-81
2021/06/11 11:20:44;;;;;;;4.88;3.78;;;26.70;33.80;;;;;;5092982;28;20028;-79
2021/06/11 11:23:16;;;;;;;4.40;3.60;;;26.60;32.30;;;;;;5071498;28;20187;-79
2021/06/11 11:25:43;;;;;;;4.72;3.35;;;26.60;32.10;;;;;;5071623;28;20093;-83
2021/06/11 11:28:10;;;;;;;3.97;3.65;;;26.70;30.70;;;;;;5077849;28;20465;-81
2021/06/11 11:30:37;;;;;;;4.68;3.50;;;26.50;31.70;;;;;;5072536;28;20424;-80
2021/06/11 11:33:05;;;;;;;4.60;4.00;;;26.70;31.50;;;;;;5071983;28;20070;-77
2021/06/11 11:35:33;;;;;;;3.28;2.85;;;26.50;31.20;;;;;;5071299;28;20029;-81
2021/06/11 11:38:01;;;;;;;3.10;2.80;;;26.40;30.50;;;;;;5072739;28;20024;-81
2021/06/11 11:40:28;;;;;;;5.88;3.08;;;26.60;27.20;;;;;;5072760;28;20025;-81
2021/06/11 11:42:56;;;;;;;4.57;3.22;;;26.70;28.00;;;;;;5072420;28;20060;-81
2021/06/11 11:45:27;;;;;;;4.05;2.83;;;26.90;29.30;;;;;;5072428;28;20047;-83
2021/06/11 11:47:53;;;;;;;2.50;2.30;;;27.00;28.60;;;;;;5072770;28;20033;-81
2021/06/11 11:50:19;;;;;;;3.50;3.20;;;27.30;29.90;;;;;;5071633;28;20486;-81
2021/06/11 11:52:45;;;;;;;4.78;3.85;;;27.70;29.30;;;;;;5070099;28;20154;-83
2021/06/11 11:55:11;;;;;;;3.60;3.30;;;27.90;30.40;;;;;;5069619;28;20504;-86
2021/06/11 11:57:36;;;;;;;3.65;2.90;;;27.90;29.30;;;;;;5070504;28;20120;-79
2021/06/11 12:00:04;;;;;;;5.05;2.90;;;28.10;29.80;;;;;;5070414;28;20186;-85
2021/06/11 12:02:30;;;;;;;3.25;2.58;;;28.00;27.90;;;;;;5071470;28;20032;-85
2021/06/11 12:04:55;;;;;;;3.10;2.70;;;27.90;26.70;;;;;;5074824;28;20520;-89
2021/06/11 12:07:21;;;;;;;2.28;2.17;;;28.20;26.50;;;;;;5074156;28;20033;-83
2021/06/11 12:09:47;;;;;;;2.00;1.80;;;28.60;26.50;;;;;;5074471;28;20031;-85
2021/06/11 12:12:12;;;;;;;1.95;1.85;;;28.80;23.30;;;;;;5074211;28;20028;-84
2021/06/11 12:14:38;;;;;;;3.78;3.38;;;29.00;22.90;;;;;;5073322;28;20029;-82
2021/06/11 12:17:03;;;;;;;4.38;3.13;;;29.10;25.60;;;;;;5072086;28;20044;-82
2021/06/11 12:19:29;;;;;;;4.78;3.08;;;29.20;27.70;;;;;;5073053;28;20051;-82
2021/06/11 12:21:55;;;;;;;5.97;3.72;;;29.20;28.10;;;;;;5072723;28;20034;-82
2021/06/11 12:24:20;;;;;;;5.72;3.83;;;29.20;29.10;;;;;;5073248;28;20416;-81
2021/06/11 12:26:46;;;;;;;4.15;3.75;;;29.20;30.40;;;;;;5072806;28;20028;-83
2021/06/11 12:29:13;;;;;;;3.75;3.33;;;29.30;30.90;;;;;;5072883;28;20052;-77
2021/06/11 12:31:39;;;;;;;3.75;3.45;;;29.60;30.70;;;;;;5073290;28;20069;-78
2021/06/11 12:34:05;;;;;;;4.20;3.28;;;29.90;30.30;;;;;;5075153;28;20028;-76
2021/06/11 12:36:30;;;;;;;4.60;4.07;;;30.20;29.40;;;;;;5075153;28;20029;-76
2021/06/11 12:38:56;;;;;;;5.63;4.15;;;30.30;29.30;;;;;;5075051;28;20025;-75
2021/06/11 12:41:22;;;;;;;4.00;3.60;;;30.20;29.60;;;;;;5075227;28;20080;-76
2021/06/11 12:46:32;;;;;;;4.55;3.42;;;30.20;29.30;;;;;;5075261;28;20142;-75